D/T METAR WX W/SPE G/SPE TEMP DEWP FEEL
25/05/22 01:50 EGDR 250050Z 24011KT 9999 FEW025 12/09 Q1014 BECMG 4000 -RADZ SCT008 BKN015 RMK BLU TEMPO GRN 12.7mph 12°C 9°C 12.8°C
25/05/22 01:24 EGDR 250024Z 24007KT 9999 FEW025 11/10 Q1014 BECMG 4000 -RADZ SCT008 BKN015 RMK BLU TEMPO GRN 8.1mph 11°C 10°C 12.3°C
25/05/22 00:50 EGDR 242350Z 25010KT 9999 FEW020 11/09 Q1014 REDZ BECMG 4000 -RADZ SCT008 BKN015 RMK BLU TEMPO GRN 11.5mph 11°C 9°C 11.8°C
25/05/22 00:25 EGDR 242325Z 25010KT 9999 FEW020 SCT035 11/10 Q1014 BECMG 4000 -RADZ SCT008 BKN015 RMK BLU TEMPO GRN 11.5mph 11°C 10°C 12.3°C
24/05/22 23:50 EGDR 242250Z 25007KT 9999 FEW020 11/09 Q1014 BECMG 4000 -RADZ SCT008 BKN015 RMK BLU TEMPO GRN 8.1mph 11°C 9°C 11.8°C
24/05/22 23:21 EGDR 242221Z 25007KT 9999 FEW035 11/08 Q1014 BECMG 4000 -RADZ SCT008 BKN015 RMK BLU TEMPO GRN 8.1mph 11°C 8°C 11.4°C
24/05/22 22:50 EGDR 242150Z 25009KT 9999 FEW020 SCT035 11/09 Q1014 BECMG 4000 -RADZ SCT008 BKN015 RMK BLU TEMPO GRN 10.4mph 11°C 9°C 11.8°C
24/05/22 22:24 EGDR 242124Z 25009KT 9999 FEW020 SCT035 BKN100 11/09 Q1014 TEMPO 7000 -SHRA SCT020 RMK BLU TEMPO WHT 10.4mph 11°C 9°C 11.8°C
24/05/22 21:50 EGDR 242050Z 25007KT 9999 FEW020 SCT035 BKN100 12/09 Q1013 TEMPO 7000 -SHRA SCT020 RMK BLU TEMPO WHT 8.1mph 12°C 9°C 12.8°C
24/05/22 21:25 EGDR 242025Z 25009KT 9999 FEW020 SCT100 BKN200 12/08 Q1013 TEMPO 7000 -SHRA SCT020 RMK BLU TEMPO WHT 10.4mph 12°C 8°C 12.4°C
24/05/22 20:50 EGDR 241950Z 26009KT 9999 FEW020 SCT035 BKN200 12/08 Q1013 TEMPO 7000 -SHRA SCT020 RMK BLU TEMPO WHT 10.4mph 12°C 8°C 12.4°C
24/05/22 20:24 EGDR 241924Z 26010KT 9999 FEW020 SCT035 BKN200 12/08 Q1013 TEMPO 7000 -SHRA SCT020 RMK BLU TEMPO WHT 11.5mph 12°C 8°C 12.4°C
24/05/22 19:50 EGDR 241850Z 26009KT 9999 FEW020 SCT035 13/08 Q1013 TEMPO 7000 -SHRA SCT020 RMK BLU TEMPO WHT 10.4mph 13°C 8°C 13.4°C
24/05/22 19:24 EGDR 241824Z 26013KT 9999 FEW020 SCT035 13/07 Q1012 TEMPO 7000 -SHRA SCT020 RMK BLU TEMPO WHT 15.0mph 13°C 7°C 13.0°C
24/05/22 18:50 EGDR 241750Z 26010KT 9999 FEW020 SCT035 14/08 Q1012 TEMPO 7000 -SHRA SCT020 RMK BLU TEMPO WHT 11.5mph 14°C 8°C 14.4°C
24/05/22 18:21 EGDR 241721Z 25015KT 9999 FEW020 SCT035 BKN050 14/07 Q1012 TEMPO 7000 -SHRA SCT020 RMK BLU TEMPO WHT 17.3mph 14°C 7°C 14.0°C
24/05/22 17:50 EGDR 241650Z 25013KT 9999 FEW020 SCT035 BKN050 14/08 Q1012 TEMPO 7000 -SHRA SCT020 RMK BLU TEMPO WHT 15.0mph 14°C 8°C 14.4°C
24/05/22 17:22 EGDR 241622Z 24013KT 9999 FEW020 SCT035 BKN050 14/09 Q1011 TEMPO 7000 -SHRA SCT020 RMK BLU TEMPO WHT 15.0mph 14°C 9°C 14.8°C
24/05/22 16:50 EGDR 241550Z 24015KT 9999 FEW020 SCT035 BKN050 15/09 Q1011 TEMPO 7000 -SHRA SCT020 RMK BLU TEMPO WHT 17.3mph 15°C 9°C 15.8°C
24/05/22 16:21 EGDR 241521Z 25013KT 9999 FEW035 SCT050 15/07 Q1011 TEMPO 7000 -SHRA SCT020 RMK BLU TEMPO WHT 15.0mph 15°C 7°C 15.0°C
24/05/22 15:50 EGDR 241450Z 29013KT 9999 FEW035 SCT050 14/05 Q1011 TEMPO 7000 -SHRA SCT020 RMK BLU TEMPO WHT 15.0mph 14°C 5°C 13.3°C
24/05/22 15:26 EGDR 241426Z 27012KT 9999 SCT035 SCT050 15/07 Q1011 TEMPO 7000 -SHRA SCT020 RMK BLU TEMPO WHT 13.8mph 15°C 7°C 15.0°C
24/05/22 14:50 EGDR 241350Z 28013KT 9999 SCT035 15/06 Q1010 TEMPO 7000 -SHRA SCT020 RMK BLU TEMPO WHT 15.0mph 15°C 6°C 14.6°C
24/05/22 14:27 EGDR 241327Z 30012KT 9999 FEW020 SCT035 16/08 Q1010 TEMPO 7000 -SHRA SCT020 RMK BLU TEMPO WHT 13.8mph 16°C 8°C 16.4°C
24/05/22 13:50 EGDR 241250Z 30012KT 9999 FEW020 SCT035 15/07 Q1010 TEMPO 7000 -SHRA SCT020 RMK BLU TEMPO WHT 13.8mph 15°C 7°C 15.0°C
24/05/22 13:23 EGDR 241223Z 29012KT 9999 FEW020 SCT035 15/08 Q//// TEMPO 7000 -SHRA SCT020 RMK BLU TEMPO WHT 13.8mph 15°C 8°C 15.4°C
24/05/22 12:50 EGDR 241150Z 32013KT 9999 FEW020 SCT035 15/04 Q1010 TEMPO 7000 -SHRA SCT020 RMK BLU TEMPO WHT 15.0mph 15°C 4°C 14.0°C
24/05/22 12:19 EGDR 241119Z 29012KT 9999 FEW020 SCT035 15/05 Q1009 TEMPO 7000 -SHRA SCT020 RMK BLU TEMPO WHT 13.8mph 15°C 5°C 14.3°C
24/05/22 11:50 EGDR 241050Z 30012KT 9999 FEW020 SCT035 14/06 Q1009 TEMPO 7000 -SHRA SCT020 RMK BLU TEMPO WHT 13.8mph 14°C 6°C 13.6°C
24/05/22 11:23 EGDR 241023Z 31012KT 9999 FEW020 SCT035 14/07 Q1009 TEMPO SHRA SCT012 BKN016TCU RMK BLU TEMPO GRN 13.8mph 14°C 7°C 14.0°C
24/05/22 10:50 EGDR 240950Z 29011KT 9999 FEW018 SCT035 15/10 Q1009 TEMPO SHRA SCT012 BKN016TCU RMK BLU TEMPO GRN 12.7mph 15°C 10°C 16.3°C
24/05/22 10:18 EGDR 240918Z 28010KT 9999 FEW018 SCT050 13/09 Q1009 TEMPO SHRA SCT012 BKN016TCU RMK BLU TEMPO GRN 11.5mph 13°C 9°C 13.8°C
24/05/22 09:50 EGDR 240850Z 28011KT 9999 FEW018 SCT035 13/08 Q1008 TEMPO SHRA SCT012 BKN016TCU RMK BLU TEMPO GRN 12.7mph 13°C 8°C 13.4°C
24/05/22 09:27 EGDR 240827Z 29009KT 9999 FEW022 SCT035 13/09 Q1008 TEMPO SHRA SCT012 BKN016TCU RMK BLU TEMPO GRN 10.4mph 13°C 9°C 13.8°C
24/05/22 08:50 EGDR 240750Z 30011KT 9999 FEW022 13/09 Q1008 TEMPO SHRA SCT012 BKN016TCU RMK BLU TEMPO GRN 12.7mph 13°C 9°C 13.8°C
24/05/22 08:24 EGDR 240724Z 26007KT 9999 FEW018 12/10 Q1008 TEMPO SHRA SCT012 BKN016TCU RMK BLU TEMPO GRN 8.1mph 12°C 10°C 13.3°C
24/05/22 07:50 EGDR 240650Z 24004KT 9999 FEW012 11/09 Q1007 TEMPO SHRA SCT012 BKN016TCU RMK BLU TEMPO GRN 4.6mph 11°C 9°C 11.8°C
24/05/22 07:20 EGDR 240620Z 22004KT 9999 VCSH FEW012 SCT022 11/09 Q1007 TEMPO SHRA SCT012 BKN016TCU RMK WHT TEMPO GRN VCSH 4.6mph 11°C 9°C 11.8°C
24/05/22 06:50 EGDR 240550Z 29004KT 9999 VCSH FEW012 SCT022 BKN030 10/08 Q1007 TEMPO SHRA SCT012 BKN016TCU RMK WHT TEMPO GRN VCSH 4.6mph 10°C 8°C 10.4°C
24/05/22 06:24 EGDR 240524Z 31005KT 9999 VCSH FEW012 SCT022 BKN030 10/08 Q1006 TEMPO SHRA SCT012 BKN016TCU RMK WHT TEMPO GRN VCSH 5.8mph 10°C 8°C 10.4°C
24/05/22 05:50 EGDR 240450Z 28007KT 9999 -SHRA FEW012 SCT018 BKN035 10/08 Q1006 TEMPO SHRA SCT012 BKN016TCU RMK WHT TEMPO GRN -SHRA 8.1mph 10°C 8°C 10.4°C
24/05/22 05:21 EGDR 240421Z 25005KT 9000 -SHRA FEW014 SCT018 BKN035 10/08 Q1006 NOSIG RMK WHT WHT -SHRA 5.8mph 10°C 8°C 10.4°C
24/05/22 04:50 EGDR 240350Z 31005KT 9999 FEW010 SCT014 BKN040 09/08 Q1005 RERA NOSIG RMK GRN GRN 5.8mph 9°C 8°C 9.4°C
24/05/22 04:27 EGDR 240327Z 33009KT 4000 -SHRA FEW010 SCT014 BKN040 10/08 Q1005 NOSIG RMK GRN GRN -SHRA 10.4mph 10°C 8°C 10.4°C
24/05/22 03:50 EGDR 240250Z AUTO 27003KT 9999 SCT014/// 10/08 Q1005 3.5mph 10°C 8°C 10.4°C
24/05/22 02:50 EGDR 240150Z AUTO 26006KT 9999 NCD 10/08 Q1005 6.9mph 10°C 8°C 10.4°C
24/05/22 01:50 EGDR 240050Z AUTO 26006KT 9999 FEW050/// 10/08 Q1005 RERA 6.9mph 10°C 8°C 10.4°C
24/05/22 00:50 EGDR 232350Z AUTO 26007KT 9999 BKN050/// 11/09 Q1005 REDZ 8.1mph 11°C 9°C 11.8°C
23/05/22 23:50 EGDR 232250Z AUTO 26008KT 9999 FEW042/// SCT050/// 11/09 Q1005 9.2mph 11°C 9°C 11.8°C
23/05/22 22:50 EGDR 232150Z AUTO 26008KT 9999 FEW020/// 11/09 Q1005 9.2mph 11°C 9°C 11.8°C
23/05/22 21:50 EGDR 232050Z AUTO 26008KT 9999 NCD 11/08 Q1005 9.2mph 11°C 8°C 11.4°C
23/05/22 20:50 EGDR 231950Z AUTO 27009KT 9999 FEW060/// 11/09 Q1005 10.4mph 11°C 9°C 11.8°C
23/05/22 19:50 EGDR 231850Z AUTO 28009KT 9999 FEW031/// 12/10 Q1005 RERA 10.4mph 12°C 10°C 13.3°C
23/05/22 18:50 EGDR 231750Z 26013KT 9999 FEW012 SCT020 BKN035 13/09 Q1004 TEMPO 5000 SHRA SCT012 BKN016TCU RMK WHT TEMPO GRN 15.0mph 13°C 9°C 13.8°C
23/05/22 18:22 EGDR 231722Z 28016KT 9999 FEW012 SCT020 BKN035 14/08 Q1004 TEMPO 5000 SHRA SCT012 BKN016TCU RMK WHT TEMPO GRN 18.4mph 14°C 8°C 14.4°C
23/05/22 17:50 EGDR 231650Z 27013KT 9999 FEW012 SCT020 13/09 Q1004 TEMPO 5000 SHRA SCT012 BKN016TCU RMK WHT TEMPO GRN 15.0mph 13°C 9°C 13.8°C
23/05/22 17:21 EGDR 231621Z 27015KT 9999 FEW012 SCT035 BKN045 13/09 Q1004 TEMPO 5000 SHRA SCT012 BKN016TCU RMK BLU TEMPO GRN 17.3mph 13°C 9°C 13.8°C
23/05/22 16:50 EGDR 231550Z 28012KT 9999 VCSH FEW012 SCT035 BKN045 13/10 Q1004 TEMPO 5000 SHRA SCT012 BKN016TCU RMK BLU TEMPO GRN VCSH 13.8mph 13°C 10°C 14.3°C
23/05/22 16:24 EGDR 231524Z 25012KT 9999 VCSH FEW012 SCT035 BKN045 13/09 Q1004 TEMPO 5000 SHRA SCT012 BKN016TCU RMK BLU TEMPO GRN VCSH 13.8mph 13°C 9°C 13.8°C
23/05/22 15:50 EGDR 231450Z 27010KT 9999 FEW020 SCT035 BKN050 14/09 Q1004 TEMPO 5000 SHRA SCT012 BKN016TCU RMK BLU TEMPO GRN 11.5mph 14°C 9°C 14.8°C
23/05/22 15:22 EGDR 231422Z 28012KT 9999 SCT035 BKN050 14/09 Q1004 TEMPO 5000 SHRA SCT012 BKN016TCU RMK BLU TEMPO GRN 13.8mph 14°C 9°C 14.8°C
23/05/22 14:50 EGDR 231350Z 28012KT 9999 FEW012 SCT035 BKN050 14/10 Q1004 TEMPO 5000 SHRA SCT012 BKN016TCU RMK BLU TEMPO GRN 13.8mph 14°C 10°C 15.3°C
23/05/22 14:27 EGDR 231327Z 28012KT 9999 FEW012 SCT035 BKN050 14/10 Q1004 TEMPO 5000 SHRA SCT012 BKN016TCU RMK BLU TEMPO GRN 13.8mph 14°C 10°C 15.3°C
23/05/22 13:50 EGDR 231250Z 27011KT 9999 FEW012 SCT020 BKN035 14/11 Q1004 TEMPO 5000 SHRA SCT012 BKN016TCU RMK WHT TEMPO GRN 12.7mph 14°C 11°C 15.8°C
23/05/22 13:27 EGDR 231227Z 27010KT 6000 SHRA SCT012 SCT020 BKN035 13/11 Q1005 NOSIG RMK GRN GRN SHRA 11.5mph 13°C 11°C 14.8°C
23/05/22 12:50 EGDR 231150Z 22006KT 5000 SHRA SCT012 SCT020 BKN035 11/10 Q1004 NOSIG RMK GRN GRN SHRA 6.9mph 11°C 10°C 12.3°C
23/05/22 12:23 EGDR 231123Z 26010KT 5000 SHRA FEW012 SCT020 BKN120 12/10 Q1005 TEMPO 5000 SHRA SCT012 BKN016TCU RMK WHT TEMPO GRN SHRA 11.5mph 12°C 10°C 13.3°C
23/05/22 11:50 EGDR 231050Z 27007KT 9999 -SHRA FEW012 SCT020 BKN120 13/10 Q1004 NOSIG RMK WHT WHT -SHRA 8.1mph 13°C 10°C 14.3°C
23/05/22 11:20 EGDR 231020Z 29010KT 9999 -SHRA FEW012 SCT020 BKN120 12/10 Q1005 NOSIG RMK WHT WHT -SHRA 11.5mph 12°C 10°C 13.3°C
23/05/22 10:50 EGDR 230950Z 26007KT 9999 -SHRA FEW012 SCT020 BKN120 13/11 Q1005 NOSIG RMK WHT WHT -SHRA 8.1mph 13°C 11°C 14.8°C
23/05/22 10:25 EGDR 230925Z 27009KT 9999 -SHRA FEW012 SCT020 BKN120 12/10 Q1005 NOSIG RMK WHT WHT -SHRA 10.4mph 12°C 10°C 13.3°C
23/05/22 09:50 EGDR 230850Z 26011KT 6000 -SHRA FEW012 SCT020 BKN120 12/10 Q1005 NOSIG RMK WHT WHT -SHRA 12.7mph 12°C 10°C 13.3°C
23/05/22 09:27 EGDR 230827Z 25009KT 9999 VCSH FEW012 SCT020 BKN120 13/10 Q1005 NOSIG RMK WHT WHT VCSH 10.4mph 13°C 10°C 14.3°C
23/05/22 08:50 EGDR 230750Z 25009KT 9999 FEW014 BKN200 13/11 Q1005 TEMPO 7000 -SHRA FEW012 SCT018 RMK BLU TEMPO WHT 10.4mph 13°C 11°C 14.8°C
23/05/22 08:21 EGDR 230721Z 25006KT 9999 FEW014 BKN120 12/11 Q1005 NOSIG RMK BLU BLU 6.9mph 12°C 11°C 13.8°C
23/05/22 07:50 EGDR 230650Z 25004KT 9999 FEW014 BKN120 12/10 Q1005 NOSIG RMK BLU BLU 4.6mph 12°C 10°C 13.3°C
23/05/22 07:29 EGDR 230629Z 26004KT 9999 FEW020 BKN120 12/10 Q1005 NOSIG RMK BLU BLU 4.6mph 12°C 10°C 13.3°C
23/05/22 06:50 EGDR 230550Z 26005KT 9999 FEW012 BKN120 12/10 Q1006 NOSIG RMK BLU BLU 5.8mph 12°C 10°C 13.3°C
23/05/22 06:22 EGDR 230522Z 24004KT 9999 FEW012 SCT035 BKN120 11/10 Q1006 NOSIG RMK BLU BLU 4.6mph 11°C 10°C 12.3°C
23/05/22 05:50 EGDR 230450Z 25002KT 9999 FEW012 SCT040 BKN120 11/10 Q1006 NOSIG RMK BLU BLU 2.3mph 11°C 10°C 12.3°C
23/05/22 05:28 EGDR 230428Z 30002KT 9999 FEW025 SCT040 BKN120 11/10 Q1006 NOSIG RMK BLU BLU 2.3mph 11°C 10°C 12.3°C
23/05/22 04:50 EGDR 230350Z 29006KT 9999 SCT035 BKN080 11/10 Q1006 NOSIG RMK BLU BLU 6.9mph 11°C 10°C 12.3°C
23/05/22 03:50 EGDR 230250Z AUTO 29005KT 9999 SCT035/// BKN110/// 12/10 Q1007 5.8mph 12°C 10°C 13.3°C
23/05/22 02:50 EGDR 230150Z AUTO 25003KT 9999 FEW018/// BKN130/// BKN170/// 12/11 Q1007 3.5mph 12°C 11°C 13.8°C
23/05/22 01:50 EGDR 230050Z AUTO 26004KT 9999 SCT170/// 11/10 Q1008 4.6mph 11°C 10°C 12.3°C
23/05/22 00:50 EGDR 222350Z AUTO 28005KT 9999 SCT160/// 12/11 Q1008 5.8mph 12°C 11°C 13.8°C
22/05/22 23:50 EGDR 222250Z AUTO 29004KT 9999 FEW070/// OVC140/// 12/11 Q1009 4.6mph 12°C 11°C 13.8°C
22/05/22 22:50 EGDR 222150Z AUTO 29005KT 9999 FEW006/// BKN150/// 13/12 Q1009 5.8mph 13°C 12°C 15.3°C
22/05/22 21:50 EGDR 222050Z AUTO 26004KT 9999 BKN003/// BKN070/// 13/13 Q1009 4.6mph 13°C 13°C 15.8°C
22/05/22 20:50 EGDR 221950Z AUTO 25007KT 9999 FEW006/// SCT009/// BKN048/// 14/12 Q1009 8.1mph 14°C 12°C 16.3°C
22/05/22 19:50 EGDR 221850Z AUTO 23005KT 9999 OVC049/// 14/12 Q1010 5.8mph 14°C 12°C 16.3°C
22/05/22 18:50 EGDR 221750Z AUTO 23006KT 9999 BKN050/// 14/11 Q1010 6.9mph 14°C 11°C 15.8°C
22/05/22 17:50 EGDR 221650Z AUTO 25007KT 9999 SCT046/// 15/11 Q1010 8.1mph 15°C 11°C 16.8°C
22/05/22 16:50 EGDR 221550Z AUTO 23006KT 9999 BKN046/// 15/11 Q1011 6.9mph 15°C 11°C 16.8°C
22/05/22 15:50 EGDR 221450Z AUTO 24007KT 9999 FEW070/// 15/11 Q1012 8.1mph 15°C 11°C 16.8°C
22/05/22 14:50 EGDR 221350Z AUTO 22007KT 9999 FEW013/// 16/11 Q1012 8.1mph 16°C 11°C 17.8°C